EGSS

London Stansted Airport

London, United Kingdom
METAR EGSS 210520Z AUTO 24005KT 9999 BKN027 OVC031 17/16 Q1020
Observed Flight Rules
Aug-21 @ 05:20 UTC (9 hours ago) Marginal Visual Flight Rules
Wind Visibility Clouds
240° at 5 knots 10,000+ meters
  • Broken at 2,700' AGL
  • Overcast at 3,100' AGL
Temperatures Readings
Current 17°C / 63°F
Dewpoint 16°C / 61°F
Humidity 94%
Altimeter 30.12" Hg
Pressure 1020 hPa
Elevation 106
METAR EGSS 210520Z AUTO 24005KT 9999 BKN027 OVC031 17/16 Q1020
Observed Flight Rules
Aug-21 @ 05:20 UTC
(9 hours ago)
MVFR
Wind Visibility
240° at 5 knots 10,000+ meters
Clouds
  • Broken at 2,700' AGL
  • Overcast at 3,100' AGL
Temperature Dewpoint
17°C / 63°F 16°C / 61°F
Humidity Altimeter Pressure
94% 30.12" Hg 1020 hPa